sensor_id;sensor_type;location;lat;lon;timestamp;pressure;altitude;pressure_sealevel;temperature
71081;BMP180;58740;50.672;18.690;2022-07-04T00:02:22;99103.20;;;20.00
71081;BMP180;58740;50.672;18.690;2022-07-04T00:04:50;99096.60;;;19.92
71081;BMP180;58740;50.672;18.690;2022-07-04T00:07:19;99097.80;;;19.90
71081;BMP180;58740;50.672;18.690;2022-07-04T00:09:46;99091.80;;;19.90
71081;BMP180;58740;50.672;18.690;2022-07-04T00:12:14;99089.80;;;19.88
71081;BMP180;58740;50.672;18.690;2022-07-04T00:14:43;99090.20;;;19.90
71081;BMP180;58740;50.672;18.690;2022-07-04T00:17:11;99093.80;;;19.90
71081;BMP180;58740;50.672;18.690;2022-07-04T00:19:39;99098.40;;;19.90
71081;BMP180;58740;50.672;18.690;2022-07-04T00:22:07;99104.00;;;19.90
71081;BMP180;58740;50.672;18.690;2022-07-04T00:24:34;99098.80;;;19.90
71081;BMP180;58740;50.672;18.690;2022-07-04T00:27:02;99105.80;;;19.90
71081;BMP180;58740;50.672;18.690;2022-07-04T00:29:30;99106.60;;;19.90
71081;BMP180;58740;50.672;18.690;2022-07-04T00:31:57;99103.00;;;19.90
71081;BMP180;58740;50.672;18.690;2022-07-04T00:34:25;99104.40;;;19.90
71081;BMP180;58740;50.672;18.690;2022-07-04T00:36:53;99100.00;;;19.90
71081;BMP180;58740;50.672;18.690;2022-07-04T00:39:21;99100.00;;;19.90
71081;BMP180;58740;50.672;18.690;2022-07-04T00:41:48;99095.60;;;19.90
71081;BMP180;58740;50.672;18.690;2022-07-04T00:44:16;99088.00;;;19.80
71081;BMP180;58740;50.672;18.690;2022-07-04T00:46:46;99087.80;;;19.80
71081;BMP180;58740;50.672;18.690;2022-07-04T00:49:17;99087.80;;;19.80
71081;BMP180;58740;50.672;18.690;2022-07-04T00:51:45;99090.20;;;19.80
71081;BMP180;58740;50.672;18.690;2022-07-04T00:54:15;99094.20;;;19.80
71081;BMP180;58740;50.672;18.690;2022-07-04T00:56:45;99088.00;;;19.80
71081;BMP180;58740;50.672;18.690;2022-07-04T00:59:13;99084.40;;;19.80
71081;BMP180;58740;50.672;18.690;2022-07-04T01:01:41;99092.20;;;19.80
71081;BMP180;58740;50.672;18.690;2022-07-04T01:04:08;99084.20;;;19.70
71081;BMP180;58740;50.672;18.690;2022-07-04T01:06:37;99086.80;;;19.70
71081;BMP180;58740;50.672;18.690;2022-07-04T01:09:06;99081.00;;;19.70
71081;BMP180;58740;50.672;18.690;2022-07-04T01:11:34;99082.60;;;19.66
71081;BMP180;58740;50.672;18.690;2022-07-04T01:14:02;99087.20;;;19.70
71081;BMP180;58740;50.672;18.690;2022-07-04T01:16:30;99088.20;;;19.66
71081;BMP180;58740;50.672;18.690;2022-07-04T01:18:57;99085.80;;;19.60
71081;BMP180;58740;50.672;18.690;2022-07-04T01:21:25;99085.40;;;19.60
71081;BMP180;58740;50.672;18.690;2022-07-04T01:23:53;99081.00;;;19.60
71081;BMP180;58740;50.672;18.690;2022-07-04T01:26:21;99079.20;;;19.60
71081;BMP180;58740;50.672;18.690;2022-07-04T01:28:50;99080.80;;;19.60
71081;BMP180;58740;50.672;18.690;2022-07-04T01:31:17;99084.00;;;19.58
71081;BMP180;58740;50.672;18.690;2022-07-04T01:33:45;99081.60;;;19.60
71081;BMP180;58740;50.672;18.690;2022-07-04T01:36:13;99077.60;;;19.50
71081;BMP180;58740;50.672;18.690;2022-07-04T01:38:40;99078.00;;;19.50
71081;BMP180;58740;50.672;18.690;2022-07-04T01:41:08;99074.20;;;19.50
71081;BMP180;58740;50.672;18.690;2022-07-04T01:43:36;99073.60;;;19.50
71081;BMP180;58740;50.672;18.690;2022-07-04T01:46:03;99063.40;;;19.50
71081;BMP180;58740;50.672;18.690;2022-07-04T01:48:31;99068.80;;;19.40
71081;BMP180;58740;50.672;18.690;2022-07-04T01:50:59;99072.80;;;19.40
71081;BMP180;58740;50.672;18.690;2022-07-04T01:53:26;99075.60;;;19.40
71081;BMP180;58740;50.672;18.690;2022-07-04T01:55:54;99079.40;;;19.30
71081;BMP180;58740;50.672;18.690;2022-07-04T01:58:22;99080.20;;;19.30
71081;BMP180;58740;50.672;18.690;2022-07-04T02:00:49;99080.80;;;19.30
71081;BMP180;58740;50.672;18.690;2022-07-04T02:03:36;99081.00;;;19.28
71081;BMP180;58740;50.672;18.690;2022-07-04T02:06:04;99074.60;;;19.20
71081;BMP180;58740;50.672;18.690;2022-07-04T02:08:31;99072.80;;;19.10
71081;BMP180;58740;50.672;18.690;2022-07-04T02:11:17;99069.80;;;19.12
71081;BMP180;58740;50.672;18.690;2022-07-04T02:13:45;99073.40;;;19.14
71081;BMP180;58740;50.672;18.690;2022-07-04T02:16:13;99075.80;;;19.18
71081;BMP180;58740;50.672;18.690;2022-07-04T02:18:40;99075.00;;;19.20
71081;BMP180;58740;50.672;18.690;2022-07-04T02:21:08;99065.40;;;19.12
71081;BMP180;58740;50.672;18.690;2022-07-04T02:23:36;99071.00;;;19.10
71081;BMP180;58740;50.672;18.690;2022-07-04T02:26:03;99068.20;;;19.10
71081;BMP180;58740;50.672;18.690;2022-07-04T02:28:31;99061.40;;;19.10
71081;BMP180;58740;50.672;18.690;2022-07-04T02:30:59;99051.60;;;19.10
71081;BMP180;58740;50.672;18.690;2022-07-04T02:33:26;99046.60;;;19.10
71081;BMP180;58740;50.672;18.690;2022-07-04T02:35:54;99046.00;;;19.10
71081;BMP180;58740;50.672;18.690;2022-07-04T02:38:22;99046.80;;;19.10
71081;BMP180;58740;50.672;18.690;2022-07-04T02:40:49;99046.40;;;19.00
71081;BMP180;58740;50.672;18.690;2022-07-04T02:43:17;99048.20;;;18.90
71081;BMP180;58740;50.672;18.690;2022-07-04T02:45:45;99054.20;;;18.90
71081;BMP180;58740;50.672;18.690;2022-07-04T02:48:13;99060.80;;;18.90
71081;BMP180;58740;50.672;18.690;2022-07-04T02:50:40;99057.80;;;18.90
71081;BMP180;58740;50.672;18.690;2022-07-04T02:53:08;99061.80;;;18.90
71081;BMP180;58740;50.672;18.690;2022-07-04T02:55:36;99059.40;;;18.80
71081;BMP180;58740;50.672;18.690;2022-07-04T02:58:03;99055.20;;;18.80
71081;BMP180;58740;50.672;18.690;2022-07-04T03:00:31;99051.00;;;18.80
71081;BMP180;58740;50.672;18.690;2022-07-04T03:02:59;99051.40;;;18.80
71081;BMP180;58740;50.672;18.690;2022-07-04T03:05:26;99050.00;;;18.80
71081;BMP180;58740;50.672;18.690;2022-07-04T03:07:59;99049.60;;;18.80
71081;BMP180;58740;50.672;18.690;2022-07-04T03:10:26;99051.40;;;18.80
71081;BMP180;58740;50.672;18.690;2022-07-04T03:12:54;99054.60;;;18.80
71081;BMP180;58740;50.672;18.690;2022-07-04T03:15:21;99056.40;;;18.80
71081;BMP180;58740;50.672;18.690;2022-07-04T03:17:49;99064.80;;;18.80
71081;BMP180;58740;50.672;18.690;2022-07-04T03:20:17;99067.60;;;18.84
71081;BMP180;58740;50.672;18.690;2022-07-04T03:22:44;99066.60;;;18.80
71081;BMP180;58740;50.672;18.690;2022-07-04T03:25:12;99068.80;;;18.70
71081;BMP180;58740;50.672;18.690;2022-07-04T03:27:40;99074.00;;;18.70
71081;BMP180;58740;50.672;18.690;2022-07-04T03:30:08;99071.20;;;18.80
71081;BMP180;58740;50.672;18.690;2022-07-04T03:32:35;99073.40;;;18.80
71081;BMP180;58740;50.672;18.690;2022-07-04T03:35:03;99075.60;;;18.78
71081;BMP180;58740;50.672;18.690;2022-07-04T03:37:31;99078.00;;;18.70
71081;BMP180;58740;50.672;18.690;2022-07-04T03:39:59;99080.80;;;18.70
71081;BMP180;58740;50.672;18.690;2022-07-04T03:42:26;99080.40;;;18.70
71081;BMP180;58740;50.672;18.690;2022-07-04T03:44:54;99085.60;;;18.80
71081;BMP180;58740;50.672;18.690;2022-07-04T03:47:21;99090.80;;;18.80
71081;BMP180;58740;50.672;18.690;2022-07-04T03:49:49;99094.20;;;18.80
71081;BMP180;58740;50.672;18.690;2022-07-04T03:52:17;99089.20;;;18.80
71081;BMP180;58740;50.672;18.690;2022-07-04T03:54:45;99084.80;;;18.80
71081;BMP180;58740;50.672;18.690;2022-07-04T03:57:13;99086.20;;;18.80
71081;BMP180;58740;50.672;18.690;2022-07-04T03:59:40;99091.20;;;18.80
71081;BMP180;58740;50.672;18.690;2022-07-04T04:02:08;99090.20;;;18.82
71081;BMP180;58740;50.672;18.690;2022-07-04T04:04:36;99086.60;;;18.90
71081;BMP180;58740;50.672;18.690;2022-07-04T04:07:22;99086.20;;;18.90
71081;BMP180;58740;50.672;18.690;2022-07-04T04:09:50;99084.80;;;18.90
71081;BMP180;58740;50.672;18.690;2022-07-04T04:12:17;99084.80;;;18.90
71081;BMP180;58740;50.672;18.690;2022-07-04T04:14:45;99085.80;;;19.00
71081;BMP180;58740;50.672;18.690;2022-07-04T04:17:13;99083.20;;;19.00
71081;BMP180;58740;50.672;18.690;2022-07-04T04:19:41;99077.00;;;19.10
71081;BMP180;58740;50.672;18.690;2022-07-04T04:22:09;99075.00;;;19.20
71081;BMP180;58740;50.672;18.690;2022-07-04T04:24:36;99071.40;;;19.20
71081;BMP180;58740;50.672;18.690;2022-07-04T04:27:04;99067.00;;;19.20
71081;BMP180;58740;50.672;18.690;2022-07-04T04:29:32;99070.20;;;19.30
71081;BMP180;58740;50.672;18.690;2022-07-04T04:32:00;99067.80;;;19.40
71081;BMP180;58740;50.672;18.690;2022-07-04T04:34:27;99074.00;;;19.50
71081;BMP180;58740;50.672;18.690;2022-07-04T04:36:55;99070.60;;;19.60
71081;BMP180;58740;50.672;18.690;2022-07-04T04:39:23;99074.40;;;19.70
71081;BMP180;58740;50.672;18.690;2022-07-04T04:41:51;99079.00;;;19.80
71081;BMP180;58740;50.672;18.690;2022-07-04T04:44:20;99074.80;;;19.90
71081;BMP180;58740;50.672;18.690;2022-07-04T04:46:48;99072.20;;;19.90
71081;BMP180;58740;50.672;18.690;2022-07-04T04:49:15;99078.40;;;19.90
71081;BMP180;58740;50.672;18.690;2022-07-04T04:51:45;99071.40;;;19.90
71081;BMP180;58740;50.672;18.690;2022-07-04T04:54:13;99071.40;;;20.00
71081;BMP180;58740;50.672;18.690;2022-07-04T04:56:41;99075.60;;;20.06
71081;BMP180;58740;50.672;18.690;2022-07-04T04:59:09;99076.00;;;20.10
71081;BMP180;58740;50.672;18.690;2022-07-04T05:01:37;99067.20;;;20.20
71081;BMP180;58740;50.672;18.690;2022-07-04T05:04:09;99065.60;;;20.30
71081;BMP180;58740;50.672;18.690;2022-07-04T05:06:37;99059.20;;;20.40
71081;BMP180;58740;50.672;18.690;2022-07-04T05:09:05;99064.60;;;20.50
71081;BMP180;58740;50.672;18.690;2022-07-04T05:11:33;99061.80;;;20.60
71081;BMP180;58740;50.672;18.690;2022-07-04T05:14:01;99064.60;;;20.60
71081;BMP180;58740;50.672;18.690;2022-07-04T05:16:29;99070.20;;;20.70
71081;BMP180;58740;50.672;18.690;2022-07-04T05:18:57;99070.40;;;20.80
71081;BMP180;58740;50.672;18.690;2022-07-04T05:21:25;99073.20;;;20.90
71081;BMP180;58740;50.672;18.690;2022-07-04T05:23:55;99068.60;;;21.00
71081;BMP180;58740;50.672;18.690;2022-07-04T05:26:22;99073.00;;;21.10
71081;BMP180;58740;50.672;18.690;2022-07-04T05:28:50;99075.00;;;21.20
71081;BMP180;58740;50.672;18.690;2022-07-04T05:31:18;99077.40;;;21.26
71081;BMP180;58740;50.672;18.690;2022-07-04T05:33:46;99081.20;;;21.30
71081;BMP180;58740;50.672;18.690;2022-07-04T05:36:14;99081.80;;;21.40
71081;BMP180;58740;50.672;18.690;2022-07-04T05:38:41;99074.20;;;21.50
71081;BMP180;58740;50.672;18.690;2022-07-04T05:41:09;99078.60;;;21.58
71081;BMP180;58740;50.672;18.690;2022-07-04T05:43:37;99076.60;;;21.60
71081;BMP180;58740;50.672;18.690;2022-07-04T05:46:04;99067.60;;;21.70
71081;BMP180;58740;50.672;18.690;2022-07-04T05:48:32;99061.40;;;21.80
71081;BMP180;58740;50.672;18.690;2022-07-04T05:51:00;99058.80;;;21.90
71081;BMP180;58740;50.672;18.690;2022-07-04T05:53:28;99063.40;;;22.00
71081;BMP180;58740;50.672;18.690;2022-07-04T05:55:55;99063.40;;;22.10
71081;BMP180;58740;50.672;18.690;2022-07-04T05:58:24;99057.20;;;22.20
71081;BMP180;58740;50.672;18.690;2022-07-04T06:00:52;99062.80;;;22.32
71081;BMP180;58740;50.672;18.690;2022-07-04T06:03:19;99064.40;;;22.50
71081;BMP180;58740;50.672;18.690;2022-07-04T06:05:51;99063.00;;;22.68
71081;BMP180;58740;50.672;18.690;2022-07-04T06:08:19;99067.60;;;22.90
71081;BMP180;58740;50.672;18.690;2022-07-04T06:10:48;99065.00;;;23.00
71081;BMP180;58740;50.672;18.690;2022-07-04T06:13:16;99065.60;;;23.10
71081;BMP180;58740;50.672;18.690;2022-07-04T06:15:43;99068.00;;;23.18
71081;BMP180;58740;50.672;18.690;2022-07-04T06:18:11;99073.20;;;23.30
71081;BMP180;58740;50.672;18.690;2022-07-04T06:20:39;99071.00;;;23.40
71081;BMP180;58740;50.672;18.690;2022-07-04T06:23:08;99078.80;;;23.60
71081;BMP180;58740;50.672;18.690;2022-07-04T06:25:36;99071.20;;;23.68
71081;BMP180;58740;50.672;18.690;2022-07-04T06:28:04;99071.40;;;23.80
71081;BMP180;58740;50.672;18.690;2022-07-04T06:30:32;99075.80;;;24.00
71081;BMP180;58740;50.672;18.690;2022-07-04T06:32:59;99075.40;;;24.10
71081;BMP180;58740;50.672;18.690;2022-07-04T06:35:31;99075.60;;;24.30
71081;BMP180;58740;50.672;18.690;2022-07-04T06:38:27;99078.60;;;24.50
71081;BMP180;58740;50.672;18.690;2022-07-04T06:40:57;99072.60;;;24.64
71081;BMP180;58740;50.672;18.690;2022-07-04T06:43:26;99071.40;;;24.80
71081;BMP180;58740;50.672;18.690;2022-07-04T06:45:54;99068.00;;;24.90
71081;BMP180;58740;50.672;18.690;2022-07-04T06:48:22;99062.00;;;24.90
71081;BMP180;58740;50.672;18.690;2022-07-04T06:50:50;99060.00;;;25.00
71081;BMP180;58740;50.672;18.690;2022-07-04T06:53:18;99061.80;;;25.10
71081;BMP180;58740;50.672;18.690;2022-07-04T06:55:45;99063.80;;;25.20
71081;BMP180;58740;50.672;18.690;2022-07-04T06:58:13;99057.00;;;25.22
71081;BMP180;58740;50.672;18.690;2022-07-04T07:00:41;99062.00;;;25.30
71081;BMP180;58740;50.672;18.690;2022-07-04T07:03:10;99065.40;;;25.20
71081;BMP180;58740;50.672;18.690;2022-07-04T07:05:37;99059.00;;;25.20
71081;BMP180;58740;50.672;18.690;2022-07-04T07:08:25;99066.80;;;25.30
71081;BMP180;58740;50.672;18.690;2022-07-04T07:10:59;99058.40;;;25.40
71081;BMP180;58740;50.672;18.690;2022-07-04T07:13:47;99054.60;;;25.40
71081;BMP180;58740;50.672;18.690;2022-07-04T07:16:15;99043.40;;;25.48
71081;BMP180;58740;50.672;18.690;2022-07-04T07:18:44;99046.60;;;25.50
71081;BMP180;58740;50.672;18.690;2022-07-04T07:21:12;99054.00;;;25.60
71081;BMP180;58740;50.672;18.690;2022-07-04T07:23:41;99046.20;;;25.70
71081;BMP180;58740;50.672;18.690;2022-07-04T07:26:10;99052.40;;;25.80
71081;BMP180;58740;50.672;18.690;2022-07-04T07:28:39;99050.60;;;25.90
71081;BMP180;58740;50.672;18.690;2022-07-04T07:31:07;99049.20;;;25.98
71081;BMP180;58740;50.672;18.690;2022-07-04T07:33:35;99049.80;;;26.08
71081;BMP180;58740;50.672;18.690;2022-07-04T07:36:04;99051.20;;;26.10
71081;BMP180;58740;50.672;18.690;2022-07-04T07:38:31;99050.00;;;26.20
71081;BMP180;58740;50.672;18.690;2022-07-04T07:40:59;99037.20;;;26.20
71081;BMP180;58740;50.672;18.690;2022-07-04T07:43:27;99040.80;;;26.22
71081;BMP180;58740;50.672;18.690;2022-07-04T07:45:56;99042.40;;;26.30
71081;BMP180;58740;50.672;18.690;2022-07-04T07:48:24;99048.40;;;26.30
71081;BMP180;58740;50.672;18.690;2022-07-04T07:50:51;99041.40;;;26.40
71081;BMP180;58740;50.672;18.690;2022-07-04T07:53:19;99034.20;;;26.38
71081;BMP180;58740;50.672;18.690;2022-07-04T07:55:47;99033.00;;;26.30
71081;BMP180;58740;50.672;18.690;2022-07-04T07:58:15;99039.20;;;26.30
71081;BMP180;58740;50.672;18.690;2022-07-04T08:00:43;99039.00;;;26.40
71081;BMP180;58740;50.672;18.690;2022-07-04T08:03:26;99039.20;;;26.40
71081;BMP180;58740;50.672;18.690;2022-07-04T08:06:13;99042.80;;;26.40
71081;BMP180;58740;50.672;18.690;2022-07-04T08:08:42;99041.40;;;26.40
71081;BMP180;58740;50.672;18.690;2022-07-04T08:11:12;99041.20;;;26.30
71081;BMP180;58740;50.672;18.690;2022-07-04T08:13:40;99044.60;;;26.40
71081;BMP180;58740;50.672;18.690;2022-07-04T08:16:10;99041.00;;;26.50
71081;BMP180;58740;50.672;18.690;2022-07-04T08:18:38;99049.60;;;26.60
71081;BMP180;58740;50.672;18.690;2022-07-04T08:21:06;99048.20;;;26.64
71081;BMP180;58740;50.672;18.690;2022-07-04T08:23:40;99043.80;;;26.70
71081;BMP180;58740;50.672;18.690;2022-07-04T08:26:28;99050.60;;;26.80
71081;BMP180;58740;50.672;18.690;2022-07-04T08:28:57;99047.40;;;26.80
71081;BMP180;58740;50.672;18.690;2022-07-04T08:31:27;99050.60;;;26.90
71081;BMP180;58740;50.672;18.690;2022-07-04T08:34:15;99055.20;;;26.90
71081;BMP180;58740;50.672;18.690;2022-07-04T08:36:43;99054.40;;;26.90
71081;BMP180;58740;50.672;18.690;2022-07-04T08:39:11;99044.60;;;26.90
71081;BMP180;58740;50.672;18.690;2022-07-04T08:41:40;99036.80;;;26.90
71081;BMP180;58740;50.672;18.690;2022-07-04T08:44:10;99042.60;;;27.00
71081;BMP180;58740;50.672;18.690;2022-07-04T08:46:41;99049.00;;;27.10
71081;BMP180;58740;50.672;18.690;2022-07-04T08:49:23;99045.40;;;27.20
71081;BMP180;58740;50.672;18.690;2022-07-04T08:52:04;99041.60;;;27.20
71081;BMP180;58740;50.672;18.690;2022-07-04T08:54:33;99042.80;;;27.10
71081;BMP180;58740;50.672;18.690;2022-07-04T08:57:20;99035.20;;;27.20
71081;BMP180;58740;50.672;18.690;2022-07-04T09:00:07;99040.60;;;27.24
71081;BMP180;58740;50.672;18.690;2022-07-04T09:02:35;99035.20;;;27.30
71081;BMP180;58740;50.672;18.690;2022-07-04T09:05:07;99030.40;;;27.30
71081;BMP180;58740;50.672;18.690;2022-07-04T09:07:36;99030.60;;;27.32
71081;BMP180;58740;50.672;18.690;2022-07-04T09:10:04;99029.80;;;27.38
71081;BMP180;58740;50.672;18.690;2022-07-04T09:12:32;99034.20;;;27.40
71081;BMP180;58740;50.672;18.690;2022-07-04T09:15:20;99035.80;;;27.46
71081;BMP180;58740;50.672;18.690;2022-07-04T09:17:48;99027.40;;;27.50
71081;BMP180;58740;50.672;18.690;2022-07-04T09:20:23;99024.60;;;27.46
71081;BMP180;58740;50.672;18.690;2022-07-04T09:22:53;99026.80;;;27.50
71081;BMP180;58740;50.672;18.690;2022-07-04T09:25:23;99026.20;;;27.50
71081;BMP180;58740;50.672;18.690;2022-07-04T09:27:56;99021.80;;;27.50
71081;BMP180;58740;50.672;18.690;2022-07-04T09:30:27;99018.80;;;27.44
71081;BMP180;58740;50.672;18.690;2022-07-04T09:32:57;99020.80;;;27.42
71081;BMP180;58740;50.672;18.690;2022-07-04T09:35:30;99019.40;;;27.50
71081;BMP180;58740;50.672;18.690;2022-07-04T09:38:03;99018.00;;;27.50
71081;BMP180;58740;50.672;18.690;2022-07-04T09:40:38;99021.20;;;27.50
71081;BMP180;58740;50.672;18.690;2022-07-04T09:43:25;99028.00;;;27.50
71081;BMP180;58740;50.672;18.690;2022-07-04T09:46:00;99032.40;;;27.50
71081;BMP180;58740;50.672;18.690;2022-07-04T09:48:50;99030.60;;;27.50
71081;BMP180;58740;50.672;18.690;2022-07-04T09:51:44;99025.80;;;27.50
71081;BMP180;58740;50.672;18.690;2022-07-04T09:54:26;99025.40;;;27.40
71081;BMP180;58740;50.672;18.690;2022-07-04T09:57:00;99023.20;;;27.40
71081;BMP180;58740;50.672;18.690;2022-07-04T09:59:29;99031.80;;;27.38
71081;BMP180;58740;50.672;18.690;2022-07-04T10:02:12;99025.80;;;27.30
71081;BMP180;58740;50.672;18.690;2022-07-04T10:04:46;99025.40;;;27.30
71081;BMP180;58740;50.672;18.690;2022-07-04T10:07:38;99023.20;;;27.30
71081;BMP180;58740;50.672;18.690;2022-07-04T10:10:22;99026.60;;;27.34
71081;BMP180;58740;50.672;18.690;2022-07-04T10:12:57;99021.00;;;27.40
71081;BMP180;58740;50.672;18.690;2022-07-04T10:15:25;99014.60;;;27.40
71081;BMP180;58740;50.672;18.690;2022-07-04T10:17:53;99018.00;;;27.40
71081;BMP180;58740;50.672;18.690;2022-07-04T10:20:21;99016.20;;;27.50
71081;BMP180;58740;50.672;18.690;2022-07-04T10:22:49;99014.80;;;27.56
71081;BMP180;58740;50.672;18.690;2022-07-04T10:25:18;99009.60;;;27.60
71081;BMP180;58740;50.672;18.690;2022-07-04T10:27:46;99017.80;;;27.70
71081;BMP180;58740;50.672;18.690;2022-07-04T10:30:26;99010.00;;;27.70
71081;BMP180;58740;50.672;18.690;2022-07-04T10:32:59;99010.60;;;27.80
71081;BMP180;58740;50.672;18.690;2022-07-04T10:38:33;99010.40;;;27.90
71081;BMP180;58740;50.672;18.690;2022-07-04T10:41:08;99020.60;;;28.00
71081;BMP180;58740;50.672;18.690;2022-07-04T10:43:37;99016.60;;;28.00
71081;BMP180;58740;50.672;18.690;2022-07-04T10:46:25;99014.20;;;28.04
71081;BMP180;58740;50.672;18.690;2022-07-04T10:54:41;99019.20;;;28.00
71081;BMP180;58740;50.672;18.690;2022-07-04T10:57:22;99009.00;;;28.00
71081;BMP180;58740;50.672;18.690;2022-07-04T11:02:28;99018.40;;;28.00
71081;BMP180;58740;50.672;18.690;2022-07-04T11:17:57;98994.40;;;28.10
71081;BMP180;58740;50.672;18.690;2022-07-04T11:20:28;98994.80;;;28.18
71081;BMP180;58740;50.672;18.690;2022-07-04T11:23:07;98993.60;;;28.20
71081;BMP180;58740;50.672;18.690;2022-07-04T11:25:37;98990.80;;;28.20
71081;BMP180;58740;50.672;18.690;2022-07-04T11:28:35;98995.40;;;28.30
71081;BMP180;58740;50.672;18.690;2022-07-04T11:31:11;98997.40;;;28.30
71081;BMP180;58740;50.672;18.690;2022-07-04T11:33:42;99002.60;;;28.40
71081;BMP180;58740;50.672;18.690;2022-07-04T11:36:16;98994.60;;;28.40
71081;BMP180;58740;50.672;18.690;2022-07-04T11:39:05;98984.40;;;28.50
71081;BMP180;58740;50.672;18.690;2022-07-04T11:41:42;98986.00;;;28.50
71081;BMP180;58740;50.672;18.690;2022-07-04T11:44:34;98981.40;;;28.60
71081;BMP180;58740;50.672;18.690;2022-07-04T11:47:36;98979.60;;;28.60
71081;BMP180;58740;50.672;18.690;2022-07-04T11:50:13;98976.60;;;28.60
71081;BMP180;58740;50.672;18.690;2022-07-04T11:52:47;98971.60;;;28.60
71081;BMP180;58740;50.672;18.690;2022-07-04T11:55:35;98965.20;;;28.70
71081;BMP180;58740;50.672;18.690;2022-07-04T11:58:03;98966.00;;;28.76
71081;BMP180;58740;50.672;18.690;2022-07-04T12:00:31;98961.60;;;28.80
71081;BMP180;58740;50.672;18.690;2022-07-04T12:03:01;98963.40;;;28.90
71081;BMP180;58740;50.672;18.690;2022-07-04T12:05:29;98958.00;;;28.88
71081;BMP180;58740;50.672;18.690;2022-07-04T12:07:58;98949.00;;;28.80
71081;BMP180;58740;50.672;18.690;2022-07-04T12:10:47;98950.80;;;28.80
71081;BMP180;58740;50.672;18.690;2022-07-04T12:13:15;98946.80;;;28.80
71081;BMP180;58740;50.672;18.690;2022-07-04T12:15:49;98943.40;;;28.80
71081;BMP180;58740;50.672;18.690;2022-07-04T12:18:28;98946.80;;;28.80
71081;BMP180;58740;50.672;18.690;2022-07-04T12:21:16;98942.80;;;28.80
71081;BMP180;58740;50.672;18.690;2022-07-04T12:23:52;98949.60;;;28.90
71081;BMP180;58740;50.672;18.690;2022-07-04T12:26:48;98946.60;;;28.90
71081;BMP180;58740;50.672;18.690;2022-07-04T12:29:24;98956.40;;;29.00
71081;BMP180;58740;50.672;18.690;2022-07-04T12:31:59;98959.60;;;29.00
71081;BMP180;58740;50.672;18.690;2022-07-04T12:34:26;98960.40;;;28.98
71081;BMP180;58740;50.672;18.690;2022-07-04T12:36:56;98961.00;;;28.90
71081;BMP180;58740;50.672;18.690;2022-07-04T12:39:38;98963.80;;;28.90
71081;BMP180;58740;50.672;18.690;2022-07-04T12:42:10;98957.00;;;28.90
71081;BMP180;58740;50.672;18.690;2022-07-04T12:44:40;98965.40;;;28.90
71081;BMP180;58740;50.672;18.690;2022-07-04T12:47:09;98966.20;;;28.90
71081;BMP180;58740;50.672;18.690;2022-07-04T12:49:48;98971.80;;;29.00
71081;BMP180;58740;50.672;18.690;2022-07-04T12:52:17;98970.40;;;29.02
71081;BMP180;58740;50.672;18.690;2022-07-04T12:55:06;98971.80;;;29.10
71081;BMP180;58740;50.672;18.690;2022-07-04T12:57:37;98972.20;;;29.10
71081;BMP180;58740;50.672;18.690;2022-07-04T13:00:06;98966.40;;;29.08
71081;BMP180;58740;50.672;18.690;2022-07-04T13:02:54;98966.80;;;29.10
71081;BMP180;58740;50.672;18.690;2022-07-04T13:05:22;98964.00;;;29.00
71081;BMP180;58740;50.672;18.690;2022-07-04T13:07:50;98960.60;;;28.96
71081;BMP180;58740;50.672;18.690;2022-07-04T13:10:17;98949.80;;;28.96
71081;BMP180;58740;50.672;18.690;2022-07-04T13:12:45;98957.20;;;29.00
71081;BMP180;58740;50.672;18.690;2022-07-04T13:15:13;98955.20;;;29.02
71081;BMP180;58740;50.672;18.690;2022-07-04T13:17:41;98955.60;;;29.10
71081;BMP180;58740;50.672;18.690;2022-07-04T13:20:09;98958.20;;;29.10
71081;BMP180;58740;50.672;18.690;2022-07-04T13:22:37;98960.00;;;29.10
71081;BMP180;58740;50.672;18.690;2022-07-04T13:25:05;98955.00;;;29.10
71081;BMP180;58740;50.672;18.690;2022-07-04T13:27:34;98959.20;;;29.10
71081;BMP180;58740;50.672;18.690;2022-07-04T13:30:02;98961.60;;;29.12
71081;BMP180;58740;50.672;18.690;2022-07-04T13:32:31;98959.60;;;29.18
71081;BMP180;58740;50.672;18.690;2022-07-04T13:35:00;98956.80;;;29.20
71081;BMP180;58740;50.672;18.690;2022-07-04T13:37:28;98963.60;;;29.20
71081;BMP180;58740;50.672;18.690;2022-07-04T13:39:56;98966.80;;;29.20
71081;BMP180;58740;50.672;18.690;2022-07-04T13:42:23;98970.00;;;29.30
71081;BMP180;58740;50.672;18.690;2022-07-04T13:45:10;98970.00;;;29.30
71081;BMP180;58740;50.672;18.690;2022-07-04T13:47:39;98965.80;;;29.30
71081;BMP180;58740;50.672;18.690;2022-07-04T13:50:07;98966.60;;;29.30
71081;BMP180;58740;50.672;18.690;2022-07-04T13:52:35;98968.40;;;29.30
71081;BMP180;58740;50.672;18.690;2022-07-04T13:55:03;98966.40;;;29.30
71081;BMP180;58740;50.672;18.690;2022-07-04T13:57:32;98965.60;;;29.30
71081;BMP180;58740;50.672;18.690;2022-07-04T13:59:59;98960.80;;;29.30
71081;BMP180;58740;50.672;18.690;2022-07-04T14:02:27;98965.60;;;29.40
71081;BMP180;58740;50.672;18.690;2022-07-04T14:04:55;98973.00;;;29.40
71081;BMP180;58740;50.672;18.690;2022-07-04T14:07:23;98973.80;;;29.40
71081;BMP180;58740;50.672;18.690;2022-07-04T14:09:51;98966.40;;;29.40
71081;BMP180;58740;50.672;18.690;2022-07-04T14:12:18;98966.40;;;29.36
71081;BMP180;58740;50.672;18.690;2022-07-04T14:14:46;98966.80;;;29.34
71081;BMP180;58740;50.672;18.690;2022-07-04T14:17:14;98968.80;;;29.30
71081;BMP180;58740;50.672;18.690;2022-07-04T14:20:03;98967.80;;;29.30
71081;BMP180;58740;50.672;18.690;2022-07-04T14:22:31;98961.20;;;29.30
71081;BMP180;58740;50.672;18.690;2022-07-04T14:24:59;98961.00;;;29.20
71081;BMP180;58740;50.672;18.690;2022-07-04T14:27:27;98956.60;;;29.20
71081;BMP180;58740;50.672;18.690;2022-07-04T14:29:54;98955.40;;;29.20
71081;BMP180;58740;50.672;18.690;2022-07-04T14:32:23;98947.80;;;29.18
71081;BMP180;58740;50.672;18.690;2022-07-04T14:34:51;98944.60;;;29.10
71081;BMP180;58740;50.672;18.690;2022-07-04T14:37:19;98949.20;;;29.10
71081;BMP180;58740;50.672;18.690;2022-07-04T14:39:47;98947.00;;;29.10
71081;BMP180;58740;50.672;18.690;2022-07-04T14:42:14;98945.80;;;29.10